Time;durP1;ratioP1;P1;durP2;ratioP2;P2;SDS_P1;SDS_P2;PMS_P1;PMS_P2;Temp;Humidity;BMP_temperature;BMP_pressure;BME280_temperature;BME280_humidity;BME280_pressure;Samples;Min_cycle;Max_cycle;Signal;HPM_P1;HPM_P2
2021/10/24 00:02:05;;;;;;;26.33;8.17;;;;;;;5.28;88.77;102093.78;5283577;55;1139023;-76
2021/10/24 00:07:11;;;;;;;21.97;8.23;;;;;;;5.15;88.24;102085.88;5283567;56;1136882;-75
2021/10/24 00:12:18;;;;;;;27.20;6.90;;;;;;;5.00;88.14;102093.34;5262811;55;1137047;-75
2021/10/24 00:17:24;;;;;;;21.23;6.63;;;;;;;4.85;88.05;102089.41;5121015;57;1137419;-76
2021/10/24 00:22:29;;;;;;;20.40;8.30;;;;;;;4.79;88.35;102091.74;5121098;57;1136961;-76
2021/10/24 00:27:35;;;;;;;30.33;9.30;;;;;;;4.82;88.51;102098.66;5120847;57;1139287;-75
2021/10/24 00:32:41;;;;;;;21.83;9.33;;;;;;;4.83;88.55;102103.86;5121591;57;1136869;-74
2021/10/24 00:37:47;;;;;;;33.47;9.07;;;;;;;4.81;88.36;102093.88;5120503;56;1137155;-76
2021/10/24 00:42:54;;;;;;;27.63;9.10;;;;;;;4.74;88.20;102103.24;5120077;57;1137078;-75
2021/10/24 00:48:00;;;;;;;33.43;10.10;;;;;;;4.63;88.07;102102.69;5120978;57;1137084;-76
2021/10/24 00:53:08;;;;;;;31.47;10.20;;;;;;;4.60;87.94;102107.11;5120946;57;1139280;-74
2021/10/24 00:58:17;;;;;;;27.57;9.13;;;;;;;4.59;87.93;102111.08;5120267;57;1141162;-76
2021/10/24 01:03:22;;;;;;;31.10;9.83;;;;;;;4.59;88.11;102113.25;5122364;57;1137213;-74
2021/10/24 01:08:28;;;;;;;37.10;12.43;;;;;;;4.56;88.10;102112.05;5120071;56;1137213;-75
2021/10/24 01:13:35;;;;;;;38.33;12.80;;;;;;;4.51;87.96;102123.55;5115937;56;1139332;-76
2021/10/24 01:18:42;;;;;;;49.50;15.90;;;;;;;4.43;87.89;102118.98;5155911;56;1139307;-74
2021/10/24 01:23:48;;;;;;;29.13;11.03;;;;;;;4.38;87.90;102119.54;5195111;56;1138985;-76
2021/10/24 01:28:58;;;;;;;160.53;96.37;;;;;;;4.26;87.66;102109.39;5202775;56;1141146;-74
2021/10/24 01:34:07;;;;;;;103.62;64.05;;;;;;;4.30;87.83;102139.36;5195486;56;1143171;-75
2021/10/24 01:39:13;;;;;;;88.73;53.97;;;;;;;4.27;88.22;102137.30;5196793;56;1141161;-76
2021/10/24 01:44:19;;;;;;;44.43;22.63;;;;;;;4.29;88.37;102147.26;5197600;56;1138975;-75
2021/10/24 01:49:24;;;;;;;33.93;15.73;;;;;;;4.16;87.65;102146.71;5197475;56;1139333;-76
2021/10/24 01:54:30;;;;;;;28.50;11.90;;;;;;;4.08;87.95;102148.23;5197364;56;1137187;-74
2021/10/24 01:59:36;;;;;;;15.90;7.37;;;;;;;4.01;87.83;102146.64;5197326;56;1137025;-73
2021/10/24 02:04:53;;;;;;;23.67;12.00;;;;;;;4.04;88.10;102149.64;5192755;56;1136945;-72
2021/10/24 02:10:01;;;;;;;21.70;8.17;;;;;;;4.09;88.40;102151.71;5195912;56;1139006;-72
2021/10/24 02:15:10;;;;;;;18.10;7.20;;;;;;;4.13;88.52;102148.09;5195497;56;1134860;-73
2021/10/24 02:20:17;;;;;;;34.67;14.03;;;;;;;4.15;88.73;102148.92;5206583;56;1135149;-73
2021/10/24 02:25:24;;;;;;;20.40;8.90;;;;;;;4.13;88.62;102139.79;5206378;56;1136961;-73
2021/10/24 02:30:30;;;;;;;25.77;9.63;;;;;;;4.08;88.29;102148.67;5206546;56;1134919;-72
2021/10/24 02:35:39;;;;;;;22.65;8.25;;;;;;;3.99;88.12;102144.95;5205815;56;1135137;-73
2021/10/24 02:40:46;;;;;;;22.10;5.83;;;;;;;3.88;88.03;102159.62;5206537;56;1134889;-73
2021/10/24 02:45:53;;;;;;;15.20;5.80;;;;;;;3.79;88.33;102152.00;5206065;56;1136934;-73
2021/10/24 02:51:00;;;;;;;16.70;6.53;;;;;;;3.80;88.63;102153.27;5206300;56;1137008;-72
2021/10/24 02:56:06;;;;;;;15.77;5.97;;;;;;;3.83;89.23;102150.55;5195062;56;1135093;-74
2021/10/24 03:01:12;;;;;;;16.07;6.27;;;;;;;3.83;89.49;102157.55;5195416;56;1132877;-74
2021/10/24 03:06:18;;;;;;;17.20;6.43;;;;;;;3.73;89.46;102157.36;5195205;56;1132704;-73
2021/10/24 03:11:24;;;;;;;16.70;6.63;;;;;;;3.73;89.58;102162.15;5202854;56;1137522;-72
2021/10/24 03:16:31;;;;;;;19.53;6.30;;;;;;;3.67;89.53;102163.58;5301725;55;1138892;-73
2021/10/24 03:21:38;;;;;;;18.80;7.07;;;;;;;3.66;89.65;102170.19;5319405;55;1139811;-72
2021/10/24 03:26:45;;;;;;;20.90;5.80;;;;;;;3.63;89.82;102176.79;5319024;55;1137189;-73
2021/10/24 03:31:51;;;;;;;17.67;6.37;;;;;;;3.52;89.52;102177.00;5319458;55;1137081;-72
2021/10/24 03:36:58;;;;;;;23.40;6.07;;;;;;;3.38;89.76;102169.46;5319074;55;1137400;-73
2021/10/24 03:42:04;;;;;;;20.60;7.17;;;;;;;3.31;89.71;102179.66;5319316;55;1137187;-73
2021/10/24 03:47:10;;;;;;;26.87;7.77;;;;;;;3.25;90.05;102178.46;5319272;55;1139325;-73
2021/10/24 03:52:16;;;;;;;19.83;7.77;;;;;;;3.24;90.00;102173.27;5319826;55;1139225;-73
2021/10/24 03:57:23;;;;;;;36.23;7.60;;;;;;;3.22;90.33;102179.83;5319754;55;1137001;-74
2021/10/24 04:02:29;;;;;;;23.57;7.80;;;;;;;3.22;90.48;102181.58;5319489;55;1137021;-73
2021/10/24 04:07:34;;;;;;;26.13;9.13;;;;;;;3.23;90.73;102181.99;5319337;55;1137036;-72
2021/10/24 04:12:40;;;;;;;28.20;8.20;;;;;;;3.24;90.94;102187.64;5300488;55;1137134;-72
2021/10/24 04:17:47;;;;;;;16.63;7.63;;;;;;;3.26;90.50;102189.34;5216564;56;1136980;-73
2021/10/24 04:22:54;;;;;;;21.93;8.03;;;;;;;3.29;90.63;102187.11;5207882;56;1136821;-73
2021/10/24 04:28:03;;;;;;;25.77;8.37;;;;;;;3.37;90.54;102187.80;5215026;56;1139315;-73
2021/10/24 04:33:09;;;;;;;24.53;8.77;;;;;;;3.45;90.71;102191.12;5207921;56;1136979;-73
2021/10/24 04:38:16;;;;;;;24.57;9.17;;;;;;;3.40;90.17;102191.66;5207505;56;1137047;-73
2021/10/24 04:43:24;;;;;;;18.17;6.00;;;;;;;3.30;89.78;102204.53;5208522;56;1137035;-73
2021/10/24 04:48:30;;;;;;;24.13;7.03;;;;;;;3.12;89.61;102202.69;5207968;56;1137216;-72
2021/10/24 04:53:36;;;;;;;15.13;6.47;;;;;;;3.01;89.82;102204.66;5207791;56;1137120;-73
2021/10/24 04:58:42;;;;;;;17.70;8.03;;;;;;;3.02;89.92;102205.08;5208120;56;1136943;-73
2021/10/24 05:03:49;;;;;;;26.43;8.80;;;;;;;3.01;89.90;102212.95;5208836;56;1139479;-72
2021/10/24 05:08:56;;;;;;;27.73;11.47;;;;;;;3.09;90.77;102207.97;5208788;56;1137194;-74
2021/10/24 05:14:12;;;;;;;26.70;12.13;;;;;;;3.04;90.26;102215.52;5199110;55;1139186;-73
2021/10/24 05:19:14;;;;;;;28.80;12.63;;;;;;;3.03;90.59;102217.27;5237020;55;1138928;-73
2021/10/24 05:24:19;;;;;;;21.50;7.58;;;;;;;2.95;90.26;102217.84;5230901;55;1139652;-73
2021/10/24 05:29:25;;;;;;;19.03;7.47;;;;;;;2.90;89.98;102218.39;5231030;55;1137136;-73
2021/10/24 05:34:32;;;;;;;25.93;10.67;;;;;;;2.96;90.47;102223.48;5245507;55;1137199;-74
2021/10/24 05:39:40;;;;;;;22.23;9.60;;;;;;;3.06;90.76;102226.33;5233684;55;1139090;-74
2021/10/24 05:44:49;;;;;;;26.37;9.93;;;;;;;3.07;90.22;102223.27;5029913;57;1136984;-73
2021/10/24 05:49:56;;;;;;;22.83;8.47;;;;;;;3.09;90.39;102231.95;5067630;57;1137084;-73
2021/10/24 05:55:06;;;;;;;23.50;7.70;;;;;;;3.03;90.07;102231.64;5028851;57;1136992;-73
2021/10/24 06:00:14;;;;;;;21.17;7.47;;;;;;;2.93;89.77;102233.98;5058423;57;1137007;-73
2021/10/24 06:05:28;;;;;;;28.50;8.73;;;;;;;3.00;90.06;102239.98;5004042;58;1135090;-72
2021/10/24 06:10:38;;;;;;;23.10;9.70;;;;;;;3.11;90.85;102249.33;5056928;57;1134926;-73
2021/10/24 06:15:43;;;;;;;39.57;13.90;;;;;;;3.17;90.97;102258.38;5058230;58;1135124;-73
2021/10/24 06:20:49;;;;;;;40.40;20.10;;;;;;;3.28;91.33;102258.16;5133205;57;1137227;-73
2021/10/24 06:25:55;;;;;;;24.43;11.10;;;;;;;3.45;91.80;102261.75;5330514;55;1136898;-73
2021/10/24 06:31:01;;;;;;;25.70;11.23;;;;;;;3.68;91.93;102263.42;5330636;55;1139099;-72
2021/10/24 06:36:12;;;;;;;20.93;10.97;;;;;;;3.72;90.76;102263.78;5295943;55;1136840;-71
2021/10/24 06:41:19;;;;;;;18.23;7.50;;;;;;;3.66;90.72;102275.70;5260442;55;1137124;-74
2021/10/24 06:46:30;;;;;;;18.67;7.97;;;;;;;3.58;90.88;102277.60;5239813;56;1134267;-75
2021/10/24 06:51:53;;;;;;;;;;;;;;;3.59;91.29;102290.23;5090605;57;1135001;-75
2021/10/24 06:57:03;;;;;;;49.80;18.23;;;;;;;3.66;91.94;102299.25;5310826;55;968228;-75
2021/10/24 07:02:23;;;;;;;63.23;20.27;;;;;;;3.56;91.92;102302.92;5248146;55;1136942;-74
2021/10/24 07:07:46;;;;;;;;;;;;;;;3.54;92.20;102308.19;5316773;55;1139061;-75
2021/10/24 07:12:52;;;;;;;18.00;5.80;;;;;;;3.62;92.57;102308.49;5295037;55;974267;-73
2021/10/24 07:17:58;;;;;;;21.10;8.07;;;;;;;3.74;93.01;102309.09;5227754;55;1136936;-75
2021/10/24 07:23:05;;;;;;;23.50;6.93;;;;;;;3.74;93.01;102309.09;5197071;56;1137177;-76
2021/10/24 07:28:18;;;;;;;18.15;6.60;;;;;;;3.87;93.47;102319.72;5192937;56;1136930;-73
2021/10/24 07:33:24;;;;;;;29.15;7.87;;;;;;;4.06;94.07;102320.64;5177605;56;1139007;-74
2021/10/24 07:38:36;;;;;;;34.17;9.23;;;;;;;4.32;94.52;102327.46;5110727;57;1139088;-74
2021/10/24 07:43:42;;;;;;;34.10;10.33;;;;;;;4.56;94.76;102333.46;5118782;57;1136906;-74
2021/10/24 07:48:49;;;;;;;25.70;9.90;;;;;;;4.83;94.93;102327.12;5141355;56;1141386;-75
2021/10/24 07:53:55;;;;;;;18.03;7.10;;;;;;;5.08;94.59;102328.22;5205821;56;1139468;-73
2021/10/24 07:59:01;;;;;;;18.98;6.75;;;;;;;5.33;94.64;102328.45;5205252;56;1139048;-74
2021/10/24 08:04:08;;;;;;;45.40;11.10;;;;;;;5.42;94.18;102328.64;5205640;56;1139152;-74
2021/10/24 08:09:17;;;;;;;32.60;8.77;;;;;;;5.64;94.95;102327.16;5199126;56;1141102;-74
2021/10/24 08:14:25;;;;;;;39.03;11.10;;;;;;;5.89;94.80;102324.25;5178300;56;1139043;-73
2021/10/24 08:19:32;;;;;;;54.88;11.60;;;;;;;5.96;94.08;102325.78;5222752;56;1141143;-73
2021/10/24 08:24:40;;;;;;;25.70;7.00;;;;;;;6.09;94.42;102325.44;5236281;55;1141142;-74
2021/10/24 08:30:02;;;;;;;17.73;6.77;;;;;;;6.17;94.44;102320.34;5180880;56;1139019;-72
2021/10/24 08:35:11;;;;;;;19.63;6.77;;;;;;;6.27;94.57;102319.14;5168156;56;1139273;-75
2021/10/24 08:40:16;;;;;;;23.30;8.90;;;;;;;6.37;94.53;102322.37;5144678;56;1138972;-73
2021/10/24 08:45:23;;;;;;;21.90;9.73;;;;;;;6.63;95.03;102323.70;5186415;56;1139107;-73
2021/10/24 08:50:29;;;;;;;26.47;8.07;;;;;;;6.82;94.97;102328.36;5190258;55;1139067;-74
2021/10/24 08:55:36;;;;;;;18.03;6.53;;;;;;;6.99;94.59;102319.45;5165592;56;1138985;-73
2021/10/24 09:00:44;;;;;;;18.97;6.20;;;;;;;7.09;94.32;102321.30;5156035;56;1139115;-74
2021/10/24 09:05:53;;;;;;;29.33;8.77;;;;;;;7.16;94.20;102321.06;5145893;56;1139079;-77
2021/10/24 09:11:02;;;;;;;18.87;6.50;;;;;;;7.20;94.02;102325.28;5144060;56;1136974;-76
2021/10/24 09:16:12;;;;;;;24.47;8.83;;;;;;;7.35;94.16;102331.78;5221349;55;1136952;-76
2021/10/24 09:21:23;;;;;;;27.93;9.30;;;;;;;7.50;94.40;102326.42;5230788;55;1137002;-76
2021/10/24 09:26:32;;;;;;;34.13;9.70;;;;;;;7.63;94.20;102322.45;5231481;55;1136930;-77
2021/10/24 09:31:53;;;;;;;29.40;8.87;;;;;;;7.82;93.45;102331.37;5231606;55;1137036;-77
2021/10/24 09:37:03;;;;;;;28.93;8.43;;;;;;;7.94;93.35;102332.72;5230663;55;1136960;-77
2021/10/24 09:42:26;;;;;;;20.10;6.30;;;;;;;8.04;92.31;102336.71;5228257;55;1137106;-76
2021/10/24 09:47:40;;;;;;;26.47;8.63;;;;;;;8.19;92.22;102342.71;5242341;55;1137153;-76
2021/10/24 09:52:45;;;;;;;20.07;8.20;;;;;;;8.32;92.31;102344.44;5242648;55;1139536;-78
2021/10/24 09:57:52;;;;;;;24.30;7.93;;;;;;;8.53;91.04;102344.92;5242532;55;1139071;-77
2021/10/24 10:03:00;;;;;;;14.13;5.17;;;;;;;8.67;91.25;102343.91;5242713;55;1139564;-76
2021/10/24 10:08:15;;;;;;;28.40;7.87;;;;;;;8.81;90.60;102340.24;5242678;55;1139007;-77
2021/10/24 10:13:28;;;;;;;25.10;11.33;;;;;;;8.91;90.56;102339.85;5202022;55;1139227;-77
2021/10/24 10:18:57;;;;;;;53.33;15.37;;;;;;;9.02;89.70;102336.29;5116972;57;1141168;-77
2021/10/24 10:24:10;;;;;;;23.97;5.60;;;;;;;9.10;89.85;102326.28;5134316;57;1141144;-78
2021/10/24 10:29:20;;;;;;;24.57;7.77;;;;;;;9.26;86.94;102327.34;5139817;57;1139469;-77
2021/10/24 10:34:26;;;;;;;20.83;5.20;;;;;;;9.36;87.20;102319.88;5138421;57;1139711;-77
2021/10/24 10:39:38;;;;;;;18.83;4.97;;;;;;;9.40;85.33;102316.17;5139656;57;1139317;-77
2021/10/24 10:45:05;;;;;;;15.63;5.30;;;;;;;9.45;84.89;102304.50;5139411;57;1139060;-78
2021/10/24 10:50:39;;;;;;;18.50;5.53;;;;;;;9.58;85.71;102303.48;4970248;59;1139038;-77
2021/10/24 10:56:10;;;;;;;21.80;7.27;;;;;;;9.67;83.97;102300.87;4965573;59;1139553;-77
2021/10/24 11:01:34;;;;;;;50.10;30.82;;;;;;;9.78;84.01;102302.09;4971480;58;1139144;-77
2021/10/24 11:06:50;;;;;;;23.50;8.00;;;;;;;9.88;84.19;102292.83;4972487;58;1139452;-76
2021/10/24 11:11:59;;;;;;;21.68;6.00;;;;;;;10.11;84.03;102282.95;4970829;58;1137583;-77
2021/10/24 11:17:05;;;;;;;21.93;5.77;;;;;;;10.28;82.56;102280.86;4958943;59;1139133;-76
2021/10/24 11:22:18;;;;;;;15.17;6.23;;;;;;;10.39;81.78;102276.75;4894363;59;1139329;-78
2021/10/24 11:27:32;;;;;;;32.90;9.87;;;;;;;10.53;82.16;102281.39;4960306;57;1139099;-77
2021/10/24 11:32:40;;;;;;;32.57;8.77;;;;;;;10.63;80.45;102272.06;5224567;56;1139279;-79
2021/10/24 11:37:55;;;;;;;31.57;8.37;;;;;;;10.77;79.15;102266.06;5219924;56;1138932;-77
2021/10/24 11:43:21;;;;;;;34.20;9.57;;;;;;;10.88;78.84;102275.63;5065794;57;1137276;-77
2021/10/24 11:48:33;;;;;;;25.17;7.55;;;;;;;11.05;78.73;102262.86;5002814;58;1141128;-78
2021/10/24 11:53:43;;;;;;;23.40;7.03;;;;;;;11.14;77.45;102272.53;5228192;56;1141285;-78
2021/10/24 11:59:04;;;;;;;21.07;7.33;;;;;;;11.31;77.45;102268.11;5182208;56;1141042;-77
2021/10/24 12:04:05;;;;;;;78.33;37.90;;;;;;;11.34;75.44;102260.01;5240178;56;1141072;-78
2021/10/24 12:09:14;;;;;;;16.50;5.70;;;;;;;11.46;76.45;102255.38;5224189;56;1143129;-77
2021/10/24 12:14:19;;;;;;;27.30;10.43;;;;;;;11.58;72.53;102261.36;5153225;57;1141151;-77
2021/10/24 12:19:28;;;;;;;14.77;4.10;;;;;;;11.67;74.61;102253.37;5184803;56;1143393;-78
2021/10/24 12:24:46;;;;;;;46.43;18.27;;;;;;;11.80;75.32;102243.83;5205338;55;1141096;-77
2021/10/24 12:30:06;;;;;;;18.63;4.53;;;;;;;11.98;74.16;102241.49;5210011;56;1143168;-77
2021/10/24 12:35:13;;;;;;;59.53;23.23;;;;;;;11.87;74.16;102235.94;5214791;56;1140773;-76
2021/10/24 12:40:29;;;;;;;24.73;9.10;;;;;;;11.85;74.15;102231.19;5189746;56;1143186;-75
2021/10/24 12:45:56;;;;;;;13.70;4.77;;;;;;;11.80;74.43;102228.78;5200123;56;1141394;-77
2021/10/24 12:51:02;;;;;;;14.70;6.43;;;;;;;11.67;73.03;102214.94;5206356;55;1141079;-77
2021/10/24 12:56:08;;;;;;;13.10;5.43;;;;;;;11.77;73.26;102209.06;5149429;57;1141175;-75
2021/10/24 13:01:34;;;;;;;15.07;6.20;;;;;;;11.64;72.98;102207.54;5154331;57;1141292;-76
2021/10/24 13:06:39;;;;;;;26.20;8.40;;;;;;;11.50;73.40;102198.17;5154218;57;1141089;-76
2021/10/24 13:11:45;;;;;;;29.85;16.37;;;;;;;11.85;75.17;102197.58;5155881;56;1138959;-77
2021/10/24 13:16:50;;;;;;;16.20;4.37;;;;;;;12.31;73.94;102194.48;5189088;56;1141071;-79
2021/10/24 13:27:02;;;;;;;14.83;4.73;;;;;;;12.63;69.44;102172.67;5190955;56;1139057;-77
2021/10/24 13:32:08;;;;;;;24.37;6.37;;;;;;;12.55;68.14;102177.57;5218639;56;1139342;-78
2021/10/24 13:37:13;;;;;;;18.70;7.87;;;;;;;12.65;68.20;102168.14;5218745;56;1139271;-76
2021/10/24 13:42:21;;;;;;;42.23;13.33;;;;;;;12.87;68.71;102162.36;5218551;56;1139041;-76
2021/10/24 13:47:26;;;;;;;24.87;7.03;;;;;;;12.75;67.33;102153.82;5218635;56;1141141;-76
2021/10/24 13:52:32;;;;;;;37.90;9.60;;;;;;;12.89;67.26;102149.84;5218571;56;1139023;-75
2021/10/24 13:57:38;;;;;;;24.80;10.27;;;;;;;13.17;69.28;102149.50;5218714;56;1139090;-76
2021/10/24 14:02:49;;;;;;;17.93;6.07;;;;;;;13.26;66.00;102151.13;5218509;56;1141185;-79
2021/10/24 14:08:00;;;;;;;13.97;5.37;;;;;;;14.00;65.61;102154.73;5186928;56;1139347;-78
2021/10/24 14:13:03;;;;;;;33.43;11.70;;;;;;;13.57;65.01;102146.04;5194232;56;1138965;-76
2021/10/24 14:18:09;;;;;;;22.60;5.93;;;;;;;13.08;65.48;102141.61;5132588;57;1141154;-78
2021/10/24 14:23:15;;;;;;;41.47;13.40;;;;;;;12.86;66.88;102137.22;5170346;56;1139162;-75
2021/10/24 14:28:21;;;;;;;31.13;9.87;;;;;;;12.91;66.94;102127.19;5316253;55;1141103;-76
2021/10/24 14:33:26;;;;;;;27.63;9.40;;;;;;;13.85;65.54;102114.98;5320281;55;1139203;-78
2021/10/24 14:38:32;;;;;;;17.93;6.53;;;;;;;13.75;63.17;102112.06;5320210;55;1137007;-77
2021/10/24 14:43:38;;;;;;;50.57;17.37;;;;;;;13.22;64.08;102116.86;5320175;55;1136933;-78
2021/10/24 14:48:44;;;;;;;18.73;5.83;;;;;;;12.89;65.59;102110.02;5340723;55;21177;-77
2021/10/24 14:53:50;;;;;;;15.90;6.43;;;;;;;12.90;67.10;102109.55;5320572;55;1136921;-75
2021/10/24 14:58:56;;;;;;;15.60;5.77;;;;;;;13.59;66.86;102100.28;5318294;55;1141273;-78
2021/10/24 15:04:01;;;;;;;71.33;24.37;;;;;;;14.23;64.69;102095.97;5240533;56;1141306;-76
2021/10/24 15:09:13;;;;;;;68.83;21.33;;;;;;;13.80;63.54;102095.81;5240412;56;1152938;-78
2021/10/24 15:14:19;;;;;;;18.27;7.13;;;;;;;13.28;64.50;102097.89;5227990;56;1143198;-76
2021/10/24 15:24:31;;;;;;;24.47;10.80;;;;;;;12.37;65.71;102091.13;5150483;56;1143137;-77
2021/10/24 15:29:36;;;;;;;32.67;11.63;;;;;;;11.96;66.29;102086.92;5115752;57;1143501;-76
2021/10/24 15:34:42;;;;;;;23.53;10.50;;;;;;;11.60;67.19;102086.77;5134285;56;1143153;-78
2021/10/24 15:39:48;;;;;;;40.90;15.60;;;;;;;11.31;67.71;102094.14;5139620;57;1143371;-74
2021/10/24 15:44:54;;;;;;;29.25;13.28;;;;;;;11.00;68.28;102077.77;5123715;56;1143153;-77
2021/10/24 15:50:00;;;;;;;27.10;12.63;;;;;;;10.71;69.01;102075.83;5183508;56;1143268;-76
2021/10/24 15:55:08;;;;;;;42.10;17.30;;;;;;;10.48;69.93;102069.98;5137880;56;1143391;-76
2021/10/24 16:00:15;;;;;;;99.50;46.43;;;;;;;10.28;70.59;102065.34;5120675;57;1143219;-76
2021/10/24 16:05:21;;;;;;;45.28;17.60;;;;;;;10.12;71.01;102067.87;5120850;57;1143202;-77
2021/10/24 16:10:27;;;;;;;49.93;20.23;;;;;;;9.99;71.59;102062.83;5120644;57;1143153;-77
2021/10/24 16:15:34;;;;;;;63.07;29.20;;;;;;;9.86;71.97;102069.20;5161977;56;1141097;-77
2021/10/24 16:20:40;;;;;;;48.17;21.00;;;;;;;9.74;72.47;102064.06;5120699;57;1141399;-75
2021/10/24 16:25:46;;;;;;;68.10;31.23;;;;;;;9.62;72.73;102067.31;5101196;55;1141105;-78
2021/10/24 16:30:54;;;;;;;70.20;31.70;;;;;;;9.48;73.20;102065.78;5176285;55;1141170;-78
2021/10/24 16:36:00;;;;;;;72.30;31.17;;;;;;;9.31;73.43;102052.09;5133034;57;1141356;-78
2021/10/24 16:46:17;;;;;;;43.93;17.23;;;;;;;9.24;74.09;102056.41;5250790;55;46181;-78
2021/10/24 16:51:24;;;;;;;68.60;26.40;;;;;;;9.10;74.48;102054.42;5021753;58;1136927;-80
2021/10/24 16:56:29;;;;;;;58.53;22.87;;;;;;;8.97;75.11;102059.42;5082628;57;1141140;-77
2021/10/24 17:01:35;;;;;;;46.20;19.50;;;;;;;8.86;75.14;102055.58;5077391;57;1141136;-74
2021/10/24 17:06:42;;;;;;;41.00;17.63;;;;;;;8.73;75.50;102049.98;5005631;59;1141102;-75
2021/10/24 17:11:47;;;;;;;40.73;16.37;;;;;;;8.64;75.72;102038.08;4975531;58;1141490;-75
2021/10/24 17:16:54;;;;;;;48.27;19.33;;;;;;;8.56;76.17;102032.73;4963543;58;1141285;-72
2021/10/24 17:22:00;;;;;;;46.90;19.40;;;;;;;8.50;76.30;102031.25;4952833;58;1141231;-75
2021/10/24 17:27:06;;;;;;;68.80;24.73;;;;;;;8.44;76.46;102035.00;4927502;59;1141208;-73
2021/10/24 17:32:12;;;;;;;58.87;23.13;;;;;;;8.36;76.84;102029.23;4852077;60;1139095;-76
2021/10/24 17:37:17;;;;;;;72.40;27.70;;;;;;;8.32;76.67;102025.02;4940562;59;1141181;-75
2021/10/24 17:42:23;;;;;;;63.70;24.20;;;;;;;8.28;76.77;102015.48;4940214;59;1141185;-74
2021/10/24 17:47:30;;;;;;;65.93;23.40;;;;;;;8.21;77.05;102014.52;4843006;59;1141491;-74
2021/10/24 17:52:36;;;;;;;72.67;24.63;;;;;;;8.09;77.66;102009.33;4962495;58;1141545;-71
2021/10/24 17:57:41;;;;;;;60.43;22.27;;;;;;;7.98;77.64;102005.81;4899469;58;1139213;-74
2021/10/24 18:02:48;;;;;;;55.70;19.63;;;;;;;7.89;78.00;102005.38;4821870;61;1136978;-75
2021/10/24 18:07:55;;;;;;;50.37;17.40;;;;;;;7.82;78.11;101993.37;4847890;61;1139087;-73
2021/10/24 18:13:01;;;;;;;63.30;25.70;;;;;;;7.73;78.39;101986.73;4902055;59;1139099;-73
2021/10/24 18:18:07;;;;;;;48.07;19.27;;;;;;;7.65;78.49;101981.77;4872833;59;1139081;-72
2021/10/24 18:23:14;;;;;;;48.47;16.40;;;;;;;7.56;78.76;101979.99;4845549;59;1137115;-76
2021/10/24 18:28:20;;;;;;;44.47;15.77;;;;;;;7.50;78.93;101980.23;4725705;61;1139316;-72
2021/10/24 18:33:27;;;;;;;45.43;17.30;;;;;;;7.46;79.01;101975.58;4844226;60;1139584;-73
2021/10/24 18:38:33;;;;;;;47.50;17.23;;;;;;;7.43;79.58;101970.90;4926681;59;1139222;-75
2021/10/24 18:43:41;;;;;;;47.10;18.40;;;;;;;7.36;79.46;101968.50;4875277;59;1139222;-74
2021/10/24 18:48:47;;;;;;;44.40;18.00;;;;;;;7.28;79.90;101958.77;4791907;61;1137379;-73
2021/10/24 18:53:52;;;;;;;52.77;20.80;;;;;;;7.21;79.79;101961.23;4793468;60;1139158;-76
2021/10/24 18:58:58;;;;;;;44.10;20.03;;;;;;;7.21;80.12;101965.64;4760303;62;1139063;-76
2021/10/24 19:04:04;;;;;;;40.37;15.93;;;;;;;7.19;80.03;101952.55;4876451;59;1139050;-76
2021/10/24 19:09:11;;;;;;;39.10;14.63;;;;;;;7.17;80.06;101952.23;4778356;61;1137022;-74
2021/10/24 19:14:17;;;;;;;35.30;12.33;;;;;;;7.11;79.96;101948.06;4837714;60;1137013;-75
2021/10/24 19:19:24;;;;;;;43.65;13.45;;;;;;;7.10;79.92;101948.98;4797998;60;1139087;-75
2021/10/24 19:24:30;;;;;;;37.55;15.45;;;;;;;7.11;80.13;101948.52;4917489;59;1139459;-75
2021/10/24 19:29:36;;;;;;;51.77;19.10;;;;;;;7.07;80.04;101938.58;4763842;61;1136926;-75
2021/10/24 19:34:41;;;;;;;55.27;21.30;;;;;;;7.01;80.10;101937.07;4925403;60;1134927;-75
2021/10/24 19:39:47;;;;;;;57.10;20.73;;;;;;;6.96;80.12;101932.89;4925507;60;1139284;-71
2021/10/24 19:44:53;;;;;;;61.30;20.23;;;;;;;6.92;80.07;101928.67;4937623;59;1141149;-75
2021/10/24 19:49:58;;;;;;;51.83;20.83;;;;;;;6.87;80.15;101917.04;4987896;58;1141160;-76
2021/10/24 19:55:15;;;;;;;51.25;19.45;;;;;;;6.81;80.19;101916.41;4937731;59;1141102;-75
2021/10/24 20:00:14;;;;;;;42.97;14.50;;;;;;;6.81;80.19;101916.41;4949615;58;1139246;-76
2021/10/24 20:05:24;;;;;;;52.17;18.60;;;;;;;6.73;80.71;101915.84;5043251;58;1138945;-78
2021/10/24 20:10:33;;;;;;;62.73;22.30;;;;;;;6.69;80.59;101914.67;5079120;57;1141090;-78
2021/10/24 20:15:38;;;;;;;68.87;24.60;;;;;;;6.69;80.71;101904.62;5129098;57;1141172;-78
2021/10/24 20:20:46;;;;;;;61.30;25.37;;;;;;;6.67;80.89;101898.10;5017910;58;1139116;-76
2021/10/24 20:25:54;;;;;;;68.37;23.80;;;;;;;6.65;80.90;101893.81;5018285;58;1139010;-77
2021/10/24 20:31:00;;;;;;;66.97;24.20;;;;;;;6.60;81.00;101901.88;5044485;57;1139320;-78
2021/10/24 20:36:06;;;;;;;45.33;16.77;;;;;;;6.59;80.93;101897.53;5179195;57;1141198;-77
2021/10/24 20:41:12;;;;;;;52.73;17.60;;;;;;;6.55;81.41;101892.02;5194850;57;1141109;-76
2021/10/24 20:46:19;;;;;;;55.17;22.47;;;;;;;6.49;81.22;101888.30;5197042;56;1141116;-78
2021/10/24 20:51:25;;;;;;;64.57;23.93;;;;;;;6.45;81.52;101882.75;5215673;56;1139073;-77
2021/10/24 20:56:30;;;;;;;45.43;16.48;;;;;;;6.38;81.60;101875.18;5125943;57;1139349;-78
2021/10/24 21:01:36;;;;;;;46.77;16.77;;;;;;;6.34;81.56;101872.66;5009257;58;1141164;-76
2021/10/24 21:06:42;;;;;;;41.77;16.93;;;;;;;6.33;81.95;101866.16;5067432;57;1141259;-75
2021/10/24 21:11:49;;;;;;;41.43;15.40;;;;;;;6.29;82.00;101869.34;5069978;57;1139100;-76
2021/10/24 21:16:55;;;;;;;35.10;12.33;;;;;;;6.22;82.03;101862.63;5150823;57;1138947;-79
2021/10/24 21:22:01;;;;;;;27.90;11.73;;;;;;;6.21;82.34;101858.29;5150849;57;1141140;-78
2021/10/24 21:27:07;;;;;;;29.00;11.90;;;;;;;6.24;82.42;101856.87;5150680;57;1140589;-77
2021/10/24 21:32:13;;;;;;;29.57;10.82;;;;;;;6.24;82.56;101848.98;5151506;57;1141057;-76
2021/10/24 21:37:19;;;;;;;33.33;11.50;;;;;;;6.21;82.67;101842.98;5151483;57;1139060;-77
2021/10/24 21:42:25;;;;;;;30.63;11.47;;;;;;;6.17;82.81;101837.44;5123311;57;1139065;-76
2021/10/24 21:47:30;;;;;;;27.43;10.40;;;;;;;6.18;82.75;101836.53;5111637;57;1141354;-76
2021/10/24 21:52:36;;;;;;;30.47;11.20;;;;;;;6.16;82.88;101835.73;5121005;57;1141028;-78
2021/10/24 21:57:43;;;;;;;25.90;10.43;;;;;;;6.14;83.06;101834.47;5121999;57;1141155;-75
2021/10/24 22:02:49;;;;;;;42.53;11.17;;;;;;;6.09;83.10;101830.33;5103511;57;1139301;-77
2021/10/24 22:07:54;;;;;;;33.33;11.03;;;;;;;6.11;83.08;101830.64;5127830;57;1139093;-77
2021/10/24 22:13:01;;;;;;;27.07;10.60;;;;;;;6.11;82.95;101833.27;5100726;57;1141277;-77
2021/10/24 22:18:07;;;;;;;38.63;12.87;;;;;;;6.11;82.84;101830.64;5078270;58;1141340;-75
2021/10/24 22:23:13;;;;;;;41.27;12.43;;;;;;;6.06;82.97;101824.73;5079266;58;1141382;-77
2021/10/24 22:28:19;;;;;;;35.70;14.20;;;;;;;5.98;83.09;101816.27;5079685;58;1139170;-78
2021/10/24 22:33:25;;;;;;;32.50;10.60;;;;;;;5.88;83.18;101826.27;5079818;58;1138934;-75
2021/10/24 22:38:32;;;;;;;29.20;11.40;;;;;;;5.90;83.17;101831.02;5079692;58;1141279;-78
2021/10/24 22:43:40;;;;;;;41.10;13.13;;;;;;;5.93;83.26;101830.91;5079653;58;1141161;-75
2021/10/24 22:48:46;;;;;;;30.10;12.33;;;;;;;5.90;83.23;101820.52;5080294;58;1139161;-76
2021/10/24 22:53:52;;;;;;;46.37;16.80;;;;;;;5.84;83.37;101816.75;5079400;58;1137067;-78
2021/10/24 22:58:58;;;;;;;50.50;15.60;;;;;;;5.81;83.30;101816.00;5071672;58;1137270;-78
2021/10/24 23:04:07;;;;;;;60.30;19.17;;;;;;;5.79;83.22;101813.47;5073174;58;1138903;-73
2021/10/24 23:09:13;;;;;;;51.03;15.67;;;;;;;5.77;83.22;101814.43;5068127;57;1138901;-76
2021/10/24 23:14:19;;;;;;;39.07;16.63;;;;;;;5.68;83.30;101802.94;5118012;57;1137307;-76
2021/10/24 23:19:26;;;;;;;43.37;15.20;;;;;;;5.59;83.50;101808.08;5156684;56;1136897;-76
2021/10/24 23:24:34;;;;;;;47.27;16.87;;;;;;;5.49;83.80;101807.57;5156669;56;1136903;-73